• Join FlightAware (Why Join?)
  • Login
  • US Flag 
 
07:33PM EST


 

Airport Tracker/Info


-or-


 

Live Flight TrackerFlight Track Log ✈ GGN7228 ✈ 26-May-2013 ✈ CYXC - CYYC

Flight Track Log - Related Links

Times and Time Zones

All times are in EDT time to prevent confusion due to time zone crossing. See the GGN7228 flight status page for this flight to view local times or setup timezone preferences in your user account.

Time Position Orientation Groundspeed Altitude Reporting Facility
EDT Latitude Longitude Course Direction KTS MPH feet Rate Location/Type
08:57PM 50.0408 -115.5006 23° Northeast  Level FlightAware Approximate
08:58PM 50.1040 -115.4616 20° North  Level FlightAware Approximate
08:58PM 50.0333 -115.5000 21° North 250 288 15,300  Level Vancouver Center
08:59PM 50.1677 -115.4246 20° North  Level FlightAware Approximate
08:59PM 50.1000 -115.4500 26° Northeast 260 299 16,100  Level Vancouver Center
09:00PM 50.2313 -115.3874 20° North  Level FlightAware Approximate
09:00PM 50.1667 -115.4167 18° North 270 311 16,600  Level Vancouver Center
09:01PM 50.2860 -115.3484 21° North  Level FlightAware Approximate
09:01PM 50.2500 -115.3500 27° Northeast 290 334 17,000  Level Vancouver Center
09:02PM 50.3493 -115.3096 21° North  Level FlightAware Approximate
09:02PM 50.3333 -115.3167 14° North 300 345 17,000  Level Vancouver Center
09:03PM 50.4125 -115.2707 21° North  Level FlightAware Approximate
09:03PM 50.4000 -115.2667 26° Northeast 290 334 17,000  Level Vancouver Center
09:04PM 50.4758 -115.2316 21° North  Level FlightAware Approximate
09:04PM 50.4667 -115.2000 32° Northeast 290 334 17,000  Level Vancouver Center
09:05PM 50.5500 -115.1667 14° North 300 345 17,000 -120 Level Vancouver Center
09:06PM 50.6333 -115.1000 27° Northeast 290 334 16,800 -600 Descending Vancouver Center
09:07PM 50.7000 -115.0667 18° North 300 345 15,900 -900 Descending Vancouver Center
09:08PM 50.7500 -114.9500 56° Northeast 310 357 15,000 -1,020 Descending Vancouver Center
09:09PM 50.7833 -114.8333 66° East 300 345 13,900 -1,260 Descending Vancouver Center
09:10PM 50.8167 -114.7500 58° Northeast 280 322 12,300 -1,380 Descending Edmonton Center
09:11PM 50.8667 -114.6667 46° Northeast 270 311 11,000 -1,320 Descending Edmonton Center
09:12PM 50.9167 -114.6000 40° Northeast 260 299 9,700 -1,260 Descending Edmonton Center
09:13PM 50.9667 -114.5500 32° Northeast 240 276 8,500 -900 Descending Edmonton Center
09:14PM 51.0333 -114.4833 32° Northeast 210 242 8,000 -780 Descending Edmonton Center
09:15PM 51.0667 -114.4333 43° Northeast 210 242 7,000 -660 Descending Edmonton Center
09:16PM 51.1167 -114.4000 23° Northeast 200 230 6,700 -300 Descending Edmonton Center
09:17PM 51.1667 -114.3167 46° Northeast 190 219 6,500 -240 Descending Edmonton Center
09:18PM 51.1667 -114.2333 90° East 180 207 6,300 -600 Descending Edmonton Center
09:19PM 51.1333 -114.1833 137° Southeast 170 196 5,400 -900 Descending Edmonton Center
09:20PM 51.1167 -114.1167 112° Southeast 150 173 4,500 -840 Descending Edmonton Center
09:21PM 51.1000 -114.0667 118° Southeast 130 150 3,800 -720 Descending Edmonton Center